Time;durP1;ratioP1;P1;durP2;ratioP2;P2;SDS_P1;SDS_P2;PMS_P1;PMS_P2;Temp;Humidity;BMP_temperature;BMP_pressure;BME280_temperature;BME280_humidity;BME280_pressure;Samples;Min_cycle;Max_cycle;Signal;HPM_P1;HPM_P2
2023/03/20 00:00:52;;;;;;;36.70;19.23;;;;;;;-146.25;100.00;52337.78;2104856;28;35615;-70
2023/03/20 00:01:54;;;;;;;37.20;20.17;;;;;;;-146.25;100.00;52335.75;2104496;28;31022;-70
2023/03/20 00:02:58;;;;;;;35.70;19.60;;;;;;;-146.25;100.00;52270.88;2095671;28;33812;-70
2023/03/20 00:04:00;;;;;;;39.10;20.40;;;;;;;-146.25;100.00;52311.44;2088199;28;33015;-71
2023/03/20 00:05:05;;;;;;;37.55;20.27;;;;;;;-146.25;100.00;52287.09;2096191;28;38475;-71
2023/03/20 00:06:28;;;;;;;42.22;20.52;;;;;;;-146.25;100.00;52287.09;2104859;28;27914;-71
2023/03/20 00:07:30;;;;;;;31.83;18.23;;;;;;;-146.25;100.00;52347.91;2096730;28;20037;-71
2023/03/20 00:08:32;;;;;;;37.65;19.60;;;;;;;-146.25;100.00;52358.06;2088046;28;30967;-70
2023/03/20 00:09:33;;;;;;;37.38;19.58;;;;;;;-146.25;100.00;52327.66;2095634;28;34237;-70
2023/03/20 00:10:44;;;;;;;36.05;18.48;;;;;;;-146.25;100.00;52315.47;2104527;28;35653;-70
2023/03/20 00:11:57;;;;;;;28.55;16.85;;;;;;;-146.25;100.00;52291.16;2095761;28;37091;-70
2023/03/20 00:12:59;;;;;;;31.48;16.45;;;;;;;-146.25;100.00;52351.97;2089744;28;20116;-69
2023/03/20 00:14:13;;;;;;;24.60;15.00;;;;;;;-146.25;100.00;52315.47;2096587;28;35084;-70
2023/03/20 00:15:23;;;;;;;23.63;14.27;;;;;;;-146.25;100.00;52335.75;2104822;28;34594;-71
2023/03/20 00:16:31;;;;;;;24.20;13.77;;;;;;;-146.25;100.00;52360.09;2104402;28;35605;-71
2023/03/20 00:17:33;;;;;;;24.52;13.38;;;;;;;-146.25;100.00;52317.50;2104772;28;32955;-70
2023/03/20 00:18:35;;;;;;;21.02;12.40;;;;;;;-146.25;100.00;52327.66;2095670;28;32746;-71
2023/03/20 00:19:36;;;;;;;20.45;12.10;;;;;;;-146.25;100.00;52331.69;2095745;28;38233;-71
2023/03/20 00:20:40;;;;;;;19.05;11.25;;;;;;;-146.25;99.66;52341.84;2105075;28;20040;-71
2023/03/20 00:21:46;;;;;;;17.17;10.68;;;;;;;-146.25;99.03;52299.25;2104504;28;34210;-71
2023/03/20 00:22:49;;;;;;;16.95;10.20;;;;;;;-146.25;99.52;52299.25;2095614;28;35095;-70
2023/03/20 00:23:52;;;;;;;17.83;10.52;;;;;;;-146.25;99.56;52341.84;2097145;28;20795;-71
2023/03/20 00:24:54;;;;;;;16.48;9.85;;;;;;;-146.25;99.66;52327.66;2104290;28;41287;-70
2023/03/20 00:25:56;;;;;;;16.88;9.95;;;;;;;-146.25;99.52;52329.66;2104682;28;34080;-71
2023/03/20 00:26:58;;;;;;;16.48;9.73;;;;;;;-146.25;99.07;52351.97;2104328;28;35964;-71
2023/03/20 00:28:40;;;;;;;15.90;10.30;;;;;;;-146.25;99.86;52315.47;2087828;28;21015;-71
2023/03/20 00:29:43;;;;;;;16.70;9.70;;;;;;;-146.25;99.16;52356.03;2099754;28;20040;-71
2023/03/20 00:30:45;;;;;;;18.77;10.32;;;;;;;-146.25;99.82;52301.28;2104716;28;36518;-71
2023/03/20 00:31:47;;;;;;;18.05;10.65;;;;;;;-146.25;100.00;52321.56;2104659;28;32571;-71
2023/03/20 00:32:51;;;;;;;18.35;11.80;;;;;;;-146.25;100.00;52323.59;2096329;28;20092;-71
2023/03/20 00:33:57;;;;;;;19.83;11.10;;;;;;;-146.25;100.00;52327.66;2096099;28;28971;-71
2023/03/20 00:34:58;;;;;;;18.95;11.10;;;;;;;-146.25;100.00;52337.78;2096309;28;20833;-71
2023/03/20 00:36:01;;;;;;;20.92;12.13;;;;;;;-146.25;100.00;52317.50;2088120;28;28911;-71
2023/03/20 00:37:04;;;;;;;18.52;12.15;;;;;;;-146.25;100.00;52303.31;2096288;28;20029;-71
2023/03/20 00:38:05;;;;;;;18.33;11.18;;;;;;;-146.25;100.00;52331.69;2104606;28;30603;-70
2023/03/20 00:39:08;;;;;;;17.58;11.35;;;;;;;-146.25;100.00;52339.81;2096141;28;20041;-71
2023/03/20 00:40:11;;;;;;;18.70;11.13;;;;;;;-146.25;100.00;52299.25;2096213;28;26646;-71
2023/03/20 00:41:38;;;;;;;19.50;11.50;;;;;;;-146.25;100.00;52323.59;2096186;28;20921;-70
2023/03/20 00:42:40;;;;;;;18.88;10.88;;;;;;;-146.25;100.00;52345.91;2090596;28;29452;-71
2023/03/20 00:43:42;;;;;;;18.33;11.13;;;;;;;-146.25;100.00;52327.66;2090065;28;21338;-69
2023/03/20 00:44:53;;;;;;;18.20;11.15;;;;;;;-146.25;100.00;52335.75;2087568;28;24680;-70
2023/03/20 00:45:57;;;;;;;17.20;10.70;;;;;;;-146.25;100.00;52321.56;2091247;28;20044;-70
2023/03/20 00:47:11;;;;;;;17.73;10.77;;;;;;;-146.25;100.00;52356.03;2098647;28;30795;-70
2023/03/20 00:48:15;;;;;;;18.70;10.57;;;;;;;-146.25;100.00;52309.41;2089469;28;20034;-70
2023/03/20 00:49:23;;;;;;;17.02;10.05;;;;;;;-146.25;100.00;52356.03;2075150;28;20197;-70
2023/03/20 00:50:30;;;;;;;18.02;10.45;;;;;;;-146.25;100.00;52337.78;2090827;28;33927;-70
2023/03/20 00:51:31;;;;;;;13.25;9.50;;;;;;;-146.25;100.00;52333.72;2106630;28;20828;-69
2023/03/20 00:52:33;;;;;;;16.13;10.25;;;;;;;-146.25;100.00;52347.91;2096775;28;30511;-70
2023/03/20 00:53:35;;;;;;;18.05;11.02;;;;;;;-146.25;100.00;52347.91;2088869;28;31484;-70
2023/03/20 00:54:37;;;;;;;16.80;10.07;;;;;;;-146.25;100.00;52321.56;2097570;28;20029;-70
2023/03/20 00:55:39;;;;;;;15.77;10.15;;;;;;;-146.25;100.00;52331.69;2105900;28;26153;-70
2023/03/20 00:56:56;;;;;;;17.85;10.75;;;;;;;-146.25;100.00;52345.91;2106364;28;27096;-69
2023/03/20 00:58:01;;;;;;;17.42;10.65;;;;;;;-146.25;100.00;52339.81;2105914;28;20072;-70
2023/03/20 00:59:07;;;;;;;19.75;11.40;;;;;;;-146.25;100.00;52305.34;2096703;28;29104;-69
2023/03/20 01:00:23;;;;;;;18.50;11.23;;;;;;;-146.25;100.00;52351.97;2097762;28;29817;-70
2023/03/20 01:01:26;;;;;;;15.63;9.98;;;;;;;-146.25;100.00;52276.97;2089127;28;20052;-70
2023/03/20 01:02:29;;;;;;;16.25;10.13;;;;;;;-146.25;100.00;52327.66;2081756;28;20065;-70
2023/03/20 01:03:31;;;;;;;17.98;10.68;;;;;;;-146.25;100.00;52319.53;2097815;28;20037;-70
2023/03/20 01:04:40;;;;;;;16.65;10.25;;;;;;;-146.25;100.00;52319.53;2096832;28;28442;-71
2023/03/20 01:05:43;;;;;;;15.63;10.27;;;;;;;-146.25;100.00;52303.31;2097830;28;35856;-71
2023/03/20 01:06:45;;;;;;;14.98;9.20;;;;;;;-146.25;100.00;52354.00;2106633;28;20158;-71
2023/03/20 01:07:47;;;;;;;14.48;9.77;;;;;;;-146.25;100.00;52351.97;2097762;28;20110;-71
2023/03/20 01:08:56;;;;;;;14.00;9.13;;;;;;;-146.25;100.00;52366.16;2088654;28;24400;-71
2023/03/20 01:10:00;;;;;;;13.45;9.18;;;;;;;-146.25;100.00;52370.22;2099334;28;20037;-71
2023/03/20 01:11:04;;;;;;;15.90;9.57;;;;;;;-146.25;100.00;52351.97;2097103;28;20887;-70
2023/03/20 01:12:09;;;;;;;14.30;9.05;;;;;;;-146.25;100.00;52356.03;2097318;28;28670;-71
2023/03/20 01:13:31;;;;;;;13.52;9.60;;;;;;;-146.25;100.00;52341.84;2097292;28;20048;-71
2023/03/20 01:14:34;;;;;;;14.82;9.00;;;;;;;-146.25;100.00;52297.22;2100793;28;30664;-71
2023/03/20 01:15:36;;;;;;;14.55;9.38;;;;;;;-146.25;100.00;52345.91;2097367;28;20056;-71
2023/03/20 01:16:38;;;;;;;13.57;8.75;;;;;;;-146.25;100.00;52341.84;2097131;28;28804;-71
2023/03/20 01:17:42;;;;;;;13.93;8.63;;;;;;;-146.25;100.00;52337.78;2096771;28;30799;-71
2023/03/20 01:18:44;;;;;;;14.60;8.70;;;;;;;-146.25;100.00;52351.97;2088514;28;33396;-71
2023/03/20 01:19:46;;;;;;;13.70;8.82;;;;;;;-146.25;100.00;52287.09;2097059;28;27495;-71
2023/03/20 01:20:49;;;;;;;12.27;8.20;;;;;;;-146.25;100.00;52305.34;2105958;28;32530;-71
2023/03/20 01:21:51;;;;;;;11.98;8.02;;;;;;;-146.25;100.00;52331.69;2106022;28;29479;-71
2023/03/20 01:22:53;;;;;;;12.02;8.13;;;;;;;-146.25;100.00;52335.75;2105517;28;20041;-71
2023/03/20 01:23:55;;;;;;;12.57;8.15;;;;;;;-146.25;100.00;52311.44;2105401;28;22946;-72
2023/03/20 01:25:01;;;;;;;10.45;7.72;;;;;;;-146.25;100.00;52335.75;2088520;28;28536;-71
2023/03/20 01:26:03;;;;;;;14.20;8.07;;;;;;;-146.25;100.00;52333.72;2081509;28;31458;-71
2023/03/20 01:27:13;;;;;;;11.32;8.25;;;;;;;-146.25;100.00;52333.72;2089213;28;26105;-71
2023/03/20 01:28:22;;;;;;;12.57;7.95;;;;;;;-146.25;100.00;52321.56;2081497;28;33024;-71
2023/03/20 01:29:29;;;;;;;10.35;7.32;;;;;;;-146.25;100.00;52323.59;2084281;28;20042;-71
2023/03/20 01:30:33;;;;;;;11.13;7.57;;;;;;;-146.25;100.00;52380.38;2098001;28;20041;-71
2023/03/20 01:31:37;;;;;;;13.52;8.70;;;;;;;-146.25;100.00;52327.66;2088796;28;20044;-71
2023/03/20 01:32:42;;;;;;;14.35;7.45;;;;;;;-146.25;100.00;52376.31;2090948;28;20092;-70
2023/03/20 01:33:45;;;;;;;10.57;8.05;;;;;;;-146.25;100.00;52396.59;2105911;28;20051;-70
2023/03/20 01:34:47;;;;;;;11.40;7.82;;;;;;;-146.25;100.00;52337.78;2097212;28;20056;-71
2023/03/20 01:35:50;;;;;;;11.77;8.20;;;;;;;-146.25;100.00;52311.44;2097050;28;20044;-71
2023/03/20 01:36:56;;;;;;;12.43;8.30;;;;;;;-146.25;100.00;52329.66;2080479;28;26397;-70
2023/03/20 01:37:57;;;;;;;12.25;8.48;;;;;;;-146.25;100.00;52329.66;2073308;28;25958;-71
2023/03/20 01:38:59;;;;;;;11.90;8.52;;;;;;;-146.25;100.00;52341.84;2089097;28;20160;-70
2023/03/20 01:40:11;;;;;;;12.98;8.32;;;;;;;-146.25;100.00;52315.47;2097458;28;20041;-72
2023/03/20 01:41:17;;;;;;;14.82;8.75;;;;;;;-146.25;100.00;52309.41;2080566;28;20182;-71
2023/03/20 01:42:19;;;;;;;13.48;8.70;;;;;;;-146.25;100.00;52319.53;2080121;28;25011;-71
2023/03/20 01:43:24;;;;;;;13.73;8.75;;;;;;;-146.25;100.00;52331.69;2072676;28;20225;-70
2023/03/20 01:44:30;;;;;;;12.13;8.10;;;;;;;-146.25;100.00;52327.66;2072871;28;20840;-71
2023/03/20 01:45:35;;;;;;;11.52;8.13;;;;;;;-146.25;100.00;52354.00;2081252;28;20053;-71
2023/03/20 01:46:40;;;;;;;13.07;8.63;;;;;;;-146.25;100.00;52335.75;2088692;28;20045;-70
2023/03/20 01:47:50;;;;;;;12.18;7.97;;;;;;;-146.25;100.00;52331.69;2072194;28;20050;-71
2023/03/20 01:49:18;;;;;;;11.48;7.68;;;;;;;-146.25;100.00;52307.38;2072521;28;20932;-70
2023/03/20 01:50:33;;;;;;;9.93;7.55;;;;;;;-146.25;100.00;52368.19;2075911;28;20172;-71
2023/03/20 01:51:40;;;;;;;10.80;7.70;;;;;;;-146.25;100.00;52329.66;2086741;28;20033;-70
2023/03/20 01:52:48;;;;;;;12.73;8.48;;;;;;;-146.25;100.00;52327.66;2080397;28;20899;-71
2023/03/20 01:54:14;;;;;;;10.88;7.80;;;;;;;-146.25;100.00;52305.34;2064847;28;20043;-71
2023/03/20 01:55:25;;;;;;;11.60;7.18;;;;;;;-146.25;100.00;52343.88;2081304;28;20188;-71
2023/03/20 01:56:38;;;;;;;12.13;8.18;;;;;;;-146.25;100.00;52339.81;2080598;28;20038;-71
2023/03/20 01:57:42;;;;;;;11.75;7.43;;;;;;;-146.25;100.00;52351.97;2080098;28;21014;-71
2023/03/20 01:58:59;;;;;;;11.93;8.05;;;;;;;-146.25;100.00;52295.19;2072750;28;20042;-70
2023/03/20 02:00:10;;;;;;;12.10;7.95;;;;;;;-146.25;100.00;52364.13;2080544;28;20104;-70
2023/03/20 02:01:20;;;;;;;12.05;7.68;;;;;;;-146.25;100.00;52305.34;2079754;28;20087;-71
2023/03/20 02:02:27;;;;;;;12.52;8.60;;;;;;;-146.25;100.00;52327.66;2080482;28;20059;-70
2023/03/20 02:03:31;;;;;;;11.80;7.63;;;;;;;-146.25;100.00;52303.31;2080054;28;20037;-70
2023/03/20 02:04:58;;;;;;;11.73;7.85;;;;;;;-146.25;100.00;52331.69;2082566;28;20042;-71
2023/03/20 02:06:02;;;;;;;12.23;7.53;;;;;;;-146.25;100.00;52356.03;2079840;28;20048;-70
2023/03/20 02:07:24;;;;;;;11.93;7.45;;;;;;;-146.25;100.00;52339.81;2083227;28;20183;-71
2023/03/20 02:08:47;;;;;;;13.63;7.90;;;;;;;-146.25;100.00;52317.50;2089639;28;20030;-70
2023/03/20 02:09:50;;;;;;;11.93;7.95;;;;;;;-146.25;100.00;52347.91;2071706;28;20171;-71
2023/03/20 02:11:01;;;;;;;12.57;7.78;;;;;;;-146.25;100.00;52356.03;2059166;28;20043;-70
2023/03/20 02:12:04;;;;;;;13.63;7.80;;;;;;;-146.25;100.00;52376.31;2066831;28;20053;-70
2023/03/20 02:13:08;;;;;;;12.63;8.35;;;;;;;-146.25;100.00;52317.50;2072977;28;20050;-70
2023/03/20 02:14:19;;;;;;;12.13;8.18;;;;;;;-146.25;100.00;52333.72;2073385;28;20153;-71
2023/03/20 02:15:55;;;;;;;11.70;7.57;;;;;;;-146.25;100.00;52327.66;2080218;28;20046;-70
2023/03/20 02:17:13;;;;;;;12.55;7.93;;;;;;;-146.25;100.00;52327.66;2076840;28;20047;-71
2023/03/20 02:18:18;;;;;;;11.55;8.27;;;;;;;-146.25;100.00;52295.19;2072658;28;20978;-71
2023/03/20 02:20:12;;;;;;;12.30;7.57;;;;;;;-146.25;100.00;52358.06;2072258;28;20045;-71
2023/03/20 02:21:41;;;;;;;12.25;8.10;;;;;;;-146.25;100.00;52323.59;2079117;28;20045;-71
2023/03/20 02:23:14;;;;;;;13.18;8.38;;;;;;;-146.25;100.00;52331.69;2075824;28;20072;-69
2023/03/20 02:25:14;;;;;;;13.77;7.57;;;;;;;-146.25;100.00;52329.66;2084949;28;20180;-71
2023/03/20 02:26:38;;;;;;;11.20;7.18;;;;;;;-146.25;100.00;52362.13;2072024;28;20146;-71
2023/03/20 02:28:05;;;;;;;13.20;7.28;;;;;;;-146.25;100.00;52295.19;2075757;28;20923;-71
2023/03/20 02:29:47;;;;;;;9.98;7.07;;;;;;;-146.25;100.00;52315.47;2075449;28;20046;-71
2023/03/20 02:31:44;;;;;;;10.48;7.50;;;;;;;-146.25;100.00;52321.56;2079828;28;20042;-71
2023/03/20 02:33:34;;;;;;;11.57;7.07;;;;;;;-146.25;100.00;52303.31;2088407;28;20085;-70
2023/03/20 02:35:08;;;;;;;11.15;6.45;;;;;;;-146.25;100.00;52337.78;2078869;28;20073;-71
2023/03/20 02:36:28;;;;;;;14.05;7.30;;;;;;;-146.25;100.00;52295.19;2084476;28;26000;-71
2023/03/20 02:37:46;;;;;;;13.07;7.45;;;;;;;-146.25;100.00;52307.38;2079958;28;20064;-71
2023/03/20 02:39:38;;;;;;;11.68;7.53;;;;;;;-146.25;100.00;52311.44;2066128;28;20070;-71
2023/03/20 02:41:02;;;;;;;10.25;7.15;;;;;;;-146.25;100.00;52295.19;2078319;28;20535;-70
2023/03/20 02:42:51;;;;;;;11.27;7.30;;;;;;;-146.25;100.00;52343.88;2079611;28;20108;-71
2023/03/20 02:44:43;;;;;;;9.65;6.53;;;;;;;-146.25;100.00;52325.63;2078514;28;20127;-71
2023/03/20 02:46:18;;;;;;;10.60;7.03;;;;;;;-146.25;100.00;52343.88;2078628;28;20934;-69
2023/03/20 02:47:28;;;;;;;11.70;7.32;;;;;;;-146.25;100.00;52313.44;2084855;28;22767;-71
2023/03/20 02:48:50;;;;;;;11.98;7.65;;;;;;;-146.25;100.00;52307.38;2088231;28;20038;-71
2023/03/20 02:50:09;;;;;;;10.93;7.38;;;;;;;-146.25;100.00;52331.69;2071987;28;20054;-71
2023/03/20 02:51:33;;;;;;;12.80;7.80;;;;;;;-146.25;100.00;52321.56;2062408;28;20043;-71
2023/03/20 02:52:58;;;;;;;10.88;7.63;;;;;;;-146.25;100.00;52313.44;2078106;28;31637;-71
2023/03/20 02:54:23;;;;;;;10.77;7.70;;;;;;;-146.25;100.00;52331.69;2071638;28;20034;-71
2023/03/20 02:55:53;;;;;;;11.70;7.35;;;;;;;-146.25;100.00;52351.97;2073162;28;20038;-71
2023/03/20 02:57:19;;;;;;;12.07;7.88;;;;;;;-146.25;100.00;52309.41;2075844;28;20152;-71
2023/03/20 02:58:43;;;;;;;11.77;7.47;;;;;;;-146.25;100.00;52317.50;2075330;28;20816;-71
2023/03/20 03:00:01;;;;;;;12.50;7.88;;;;;;;-146.25;100.00;52341.84;2074856;28;20030;-71
2023/03/20 03:01:19;;;;;;;11.77;7.82;;;;;;;-146.25;100.00;52358.06;2082610;28;20041;-71
2023/03/20 03:02:35;;;;;;;12.07;8.13;;;;;;;-146.25;100.00;52323.59;2080130;28;20053;-70
2023/03/20 03:03:46;;;;;;;13.57;8.13;;;;;;;-146.25;100.00;52343.88;2073661;28;20923;-71
2023/03/20 03:04:55;;;;;;;11.27;7.60;;;;;;;-146.25;100.00;52339.81;2073242;28;20053;-71
2023/03/20 03:06:08;;;;;;;10.57;7.40;;;;;;;-146.25;100.00;52335.75;2073336;28;20050;-71
2023/03/20 03:07:14;;;;;;;11.65;7.95;;;;;;;-146.25;100.00;52356.03;2081801;28;20147;-71
2023/03/20 03:08:21;;;;;;;12.60;7.78;;;;;;;-146.25;100.00;52356.03;2079428;28;20037;-70
2023/03/20 03:09:40;;;;;;;11.23;7.50;;;;;;;-146.25;100.00;52329.66;2073194;28;20570;-71
2023/03/20 03:10:53;;;;;;;12.77;7.95;;;;;;;-146.25;100.00;52349.94;2074226;28;20831;-70
2023/03/20 03:12:27;;;;;;;10.75;7.32;;;;;;;-146.25;100.00;52331.69;2065328;28;20928;-71
2023/03/20 03:13:37;;;;;;;12.82;8.07;;;;;;;-146.25;100.00;52341.84;2074515;28;20054;-71
2023/03/20 03:14:55;;;;;;;12.25;8.55;;;;;;;-146.25;100.00;52327.66;2086198;28;20064;-71
2023/03/20 03:16:06;;;;;;;10.50;7.30;;;;;;;-146.25;100.00;52337.78;2080074;28;21010;-71
2023/03/20 03:17:15;;;;;;;11.18;7.90;;;;;;;-146.25;100.00;52325.63;2073722;28;20050;-70
2023/03/20 03:18:22;;;;;;;11.90;7.68;;;;;;;-146.25;100.00;52337.78;2065482;28;27716;-71
2023/03/20 03:19:27;;;;;;;11.65;7.85;;;;;;;-146.25;100.00;52333.72;2066182;28;20126;-70
2023/03/20 03:20:35;;;;;;;11.25;7.57;;;;;;;-146.25;100.00;52331.69;2072860;28;20960;-71
2023/03/20 03:21:39;;;;;;;13.18;7.70;;;;;;;-146.25;100.00;52337.78;2065058;28;20089;-71
2023/03/20 03:22:42;;;;;;;12.55;7.82;;;;;;;-146.25;100.00;52337.78;2065915;28;20105;-71
2023/03/20 03:23:47;;;;;;;10.68;7.28;;;;;;;-146.25;100.00;52319.53;2072422;28;20046;-71
2023/03/20 03:24:52;;;;;;;11.50;7.72;;;;;;;-146.25;100.00;52349.94;2079504;28;30674;-71
2023/03/20 03:25:57;;;;;;;10.73;7.78;;;;;;;-146.25;100.00;52311.44;2087947;28;20060;-70
2023/03/20 03:27:06;;;;;;;11.57;8.02;;;;;;;-146.25;100.00;52347.91;2088460;28;20038;-71
2023/03/20 03:28:36;;;;;;;11.15;7.63;;;;;;;-146.25;100.00;52319.53;2079931;28;20085;-71
2023/03/20 03:29:39;;;;;;;11.75;8.23;;;;;;;-146.25;100.00;52362.13;2075282;28;22511;-70
2023/03/20 03:30:44;;;;;;;12.27;8.43;;;;;;;-146.25;100.00;52329.66;2080108;28;20078;-71
2023/03/20 03:31:46;;;;;;;10.75;8.02;;;;;;;-146.25;100.00;52358.06;2079590;28;20898;-71
2023/03/20 03:33:20;;;;;;;13.48;8.38;;;;;;;-146.25;100.00;52341.84;2079663;28;24053;-71
2023/03/20 03:34:23;;;;;;;13.35;8.48;;;;;;;-146.25;100.00;52354.00;2073912;28;20176;-71
2023/03/20 03:35:27;;;;;;;10.85;8.05;;;;;;;-146.25;100.00;52356.03;2088435;28;29913;-71
2023/03/20 03:36:54;;;;;;;11.55;7.70;;;;;;;-146.25;100.00;52335.75;2087815;28;20103;-71
2023/03/20 03:38:09;;;;;;;12.75;8.50;;;;;;;-146.25;100.00;52331.69;2079630;28;20057;-71
2023/03/20 03:39:33;;;;;;;13.35;8.68;;;;;;;-146.25;100.00;52351.97;2079531;28;20081;-71
2023/03/20 03:40:43;;;;;;;12.55;7.88;;;;;;;-146.25;100.00;52321.56;2082460;28;21635;-71
2023/03/20 03:42:26;;;;;;;10.98;8.00;;;;;;;-146.25;100.00;52339.81;2079454;28;20042;-71
2023/03/20 03:43:49;;;;;;;15.10;8.10;;;;;;;-146.25;100.00;52341.84;2076997;28;20992;-71
2023/03/20 03:45:17;;;;;;;13.18;9.27;;;;;;;-146.25;100.00;52311.44;2088023;28;20085;-71
2023/03/20 03:46:25;;;;;;;12.55;8.95;;;;;;;-146.25;100.00;52339.81;2080226;28;26366;-71
2023/03/20 03:47:57;;;;;;;12.10;8.45;;;;;;;-146.25;100.00;52335.75;2075008;28;28540;-70
2023/03/20 03:49:01;;;;;;;14.65;8.50;;;;;;;-146.25;100.00;52347.91;2072748;28;20141;-71
2023/03/20 03:50:15;;;;;;;12.68;7.90;;;;;;;-146.25;100.00;52327.66;2071935;28;23789;-71
2023/03/20 03:51:23;;;;;;;13.18;9.05;;;;;;;-146.25;100.00;52331.69;2073688;28;26443;-71
2023/03/20 03:52:36;;;;;;;13.07;8.90;;;;;;;-146.25;100.00;52323.59;2074833;28;20049;-70
2023/03/20 03:53:47;;;;;;;15.02;9.25;;;;;;;-146.25;100.00;52364.13;2080062;28;20046;-71
2023/03/20 03:54:59;;;;;;;13.13;9.10;;;;;;;-146.25;100.00;52331.69;2079877;28;20093;-70
2023/03/20 03:56:09;;;;;;;15.50;9.23;;;;;;;-146.25;100.00;52323.59;2081598;28;20168;-70
2023/03/20 03:57:16;;;;;;;13.57;8.82;;;;;;;-146.25;100.00;52327.66;2088102;28;20166;-70
2023/03/20 03:58:27;;;;;;;14.57;9.65;;;;;;;-146.25;100.00;52331.69;2079507;28;20037;-70
2023/03/20 03:59:45;;;;;;;13.88;9.30;;;;;;;-146.25;100.00;52319.53;2072472;28;20919;-70
2023/03/20 04:00:51;;;;;;;13.73;8.57;;;;;;;-146.25;100.00;52345.91;2065302;28;20042;-70
2023/03/20 04:01:55;;;;;;;15.88;9.60;;;;;;;-146.25;100.00;52347.91;2073087;28;28451;-70
2023/03/20 04:02:57;;;;;;;13.60;8.93;;;;;;;-146.25;100.00;52364.13;2079347;28;20065;-70
2023/03/20 04:04:02;;;;;;;14.63;9.10;;;;;;;-146.25;100.00;52343.88;2071095;28;20081;-70
2023/03/20 04:05:07;;;;;;;15.65;10.30;;;;;;;-146.25;100.00;52331.69;2073334;28;20050;-70
2023/03/20 04:06:14;;;;;;;13.23;8.75;;;;;;;-146.25;100.00;52339.81;2079532;28;20054;-70
2023/03/20 04:07:16;;;;;;;14.90;9.40;;;;;;;-146.25;100.00;52345.91;2080271;28;29764;-70
2023/03/20 04:08:18;;;;;;;14.77;9.30;;;;;;;-146.25;100.00;52347.91;2079241;28;27521;-70
2023/03/20 04:09:19;;;;;;;14.95;9.00;;;;;;;-146.25;100.00;52376.31;2079330;28;24651;-69
2023/03/20 04:10:21;;;;;;;14.75;9.25;;;;;;;-146.25;100.00;52351.97;2088232;28;20060;-69
2023/03/20 04:11:28;;;;;;;13.73;8.82;;;;;;;-146.25;100.00;52321.56;2088706;28;20084;-69
2023/03/20 04:12:36;;;;;;;15.43;9.07;;;;;;;-146.25;100.00;52360.09;2088301;28;21005;-72
2023/03/20 04:13:43;;;;;;;16.30;9.80;;;;;;;-146.25;100.00;52351.97;2079898;28;20042;-71
2023/03/20 04:14:48;;;;;;;14.23;9.70;;;;;;;-146.25;100.00;52333.72;2072045;28;20935;-69
2023/03/20 04:15:51;;;;;;;14.02;9.30;;;;;;;-146.25;100.00;52347.91;2079866;28;20089;-69
2023/03/20 04:16:53;;;;;;;16.15;9.88;;;;;;;-146.25;100.00;52335.75;2087829;28;20038;-69
2023/03/20 04:17:55;;;;;;;15.73;9.63;;;;;;;-146.25;100.00;52307.38;2087731;28;20038;-71
2023/03/20 04:18:57;;;;;;;15.30;9.27;;;;;;;-146.25;100.00;52358.06;2079578;28;20934;-71
2023/03/20 04:19:59;;;;;;;13.65;9.00;;;;;;;-146.25;100.00;52376.31;2079441;28;20176;-70
2023/03/20 04:21:02;;;;;;;14.65;9.60;;;;;;;-146.25;100.00;52337.78;2087847;28;20112;-70
2023/03/20 04:22:03;;;;;;;14.27;9.15;;;;;;;-146.25;100.00;52354.00;2087454;28;33132;-71
2023/03/20 04:23:05;;;;;;;12.65;9.05;;;;;;;-146.25;100.00;52335.75;2078867;28;20038;-70
2023/03/20 04:24:07;;;;;;;15.63;8.80;;;;;;;-146.25;100.00;52335.75;2079753;28;20171;-71
2023/03/20 04:25:25;;;;;;;14.88;9.27;;;;;;;-146.25;100.00;52356.03;2087468;28;25646;-70
2023/03/20 04:26:28;;;;;;;14.40;8.63;;;;;;;-146.25;100.00;52349.94;2079523;28;20127;-71
2023/03/20 04:27:31;;;;;;;15.90;9.15;;;;;;;-146.25;100.00;52323.59;2071252;28;20058;-71
2023/03/20 04:28:34;;;;;;;14.15;8.82;;;;;;;-146.25;100.00;52339.81;2071729;28;20038;-71
2023/03/20 04:30:09;;;;;;;15.55;9.43;;;;;;;-146.25;100.00;52351.97;2075536;28;20878;-71
2023/03/20 04:31:46;;;;;;;15.45;8.25;;;;;;;-146.25;100.00;52351.97;2079353;28;20268;-71
2023/03/20 04:33:00;;;;;;;13.43;7.97;;;;;;;-146.25;100.00;52333.72;2072469;28;20057;-71
2023/03/20 04:34:18;;;;;;;14.02;8.77;;;;;;;-146.25;100.00;52341.84;2081824;28;20041;-71
2023/03/20 04:35:38;;;;;;;14.00;9.43;;;;;;;-146.25;100.00;52347.91;2079470;28;20119;-70
2023/03/20 04:36:48;;;;;;;14.85;9.55;;;;;;;-146.25;100.00;52343.88;2072378;28;20917;-71
2023/03/20 04:37:51;;;;;;;15.05;9.25;;;;;;;-146.25;100.00;52362.13;2072487;28;20116;-71
2023/03/20 04:38:53;;;;;;;15.57;9.60;;;;;;;-146.25;100.00;52358.06;2071189;28;20089;-71
2023/03/20 04:39:58;;;;;;;15.82;9.93;;;;;;;-146.25;100.00;52323.59;2079701;28;20176;-71
2023/03/20 04:41:00;;;;;;;15.77;10.23;;;;;;;-146.25;100.00;52345.91;2071210;28;20177;-71
2023/03/20 04:42:03;;;;;;;17.27;10.65;;;;;;;-146.25;100.00;52374.28;2079583;28;20371;-71
2023/03/20 04:43:08;;;;;;;18.23;10.10;;;;;;;-146.25;100.00;52307.38;2079158;28;20034;-71
2023/03/20 04:44:10;;;;;;;16.60;10.77;;;;;;;-146.25;100.00;52347.91;2071625;28;20081;-72
2023/03/20 04:45:12;;;;;;;17.90;10.43;;;;;;;-146.25;100.00;52349.94;2079702;28;20454;-71
2023/03/20 04:46:14;;;;;;;18.13;10.95;;;;;;;-146.25;100.00;52349.94;2087135;28;28641;-71
2023/03/20 04:47:16;;;;;;;17.25;10.73;;;;;;;-146.25;100.00;52329.66;2087570;28;31105;-71
2023/03/20 04:48:18;;;;;;;17.65;11.43;;;;;;;-146.25;100.00;52345.91;2079492;28;20986;-71
2023/03/20 04:49:20;;;;;;;22.73;11.25;;;;;;;-146.25;100.00;52349.94;2078698;28;20915;-71
2023/03/20 04:50:22;;;;;;;17.52;11.38;;;;;;;-146.25;100.00;52370.22;2071584;28;20049;-71
2023/03/20 04:51:26;;;;;;;14.45;10.35;;;;;;;-146.25;100.00;52331.69;2071033;28;20703;-71
2023/03/20 04:52:27;;;;;;;23.13;11.40;;;;;;;-146.25;100.00;52335.75;2079230;28;27750;-70
2023/03/20 04:53:29;;;;;;;18.70;11.02;;;;;;;-146.25;100.00;52319.53;2087057;28;20875;-70
2023/03/20 04:54:31;;;;;;;17.27;11.30;;;;;;;-146.25;100.00;52370.22;2079388;28;20046;-70
2023/03/20 04:55:33;;;;;;;17.02;10.40;;;;;;;-146.25;100.00;52349.94;2079194;28;27619;-70
2023/03/20 04:56:35;;;;;;;16.13;10.27;;;;;;;-146.25;100.00;52368.19;2079335;28;20100;-71
2023/03/20 04:57:54;;;;;;;20.17;11.20;;;;;;;-146.25;100.00;52362.13;2071434;28;20897;-70
2023/03/20 04:59:00;;;;;;;17.05;11.15;;;;;;;-146.25;100.00;52333.72;2069302;28;20050;-71
2023/03/20 05:00:04;;;;;;;18.23;11.35;;;;;;;-146.25;100.00;52333.72;2079390;28;20046;-71
2023/03/20 05:01:08;;;;;;;18.83;11.63;;;;;;;-146.25;100.00;52315.47;2087501;28;20115;-70
2023/03/20 05:02:13;;;;;;;20.38;11.70;;;;;;;-146.25;100.00;52343.88;2086807;28;20057;-70
2023/03/20 05:03:15;;;;;;;21.45;11.20;;;;;;;-146.25;100.00;52362.13;2071145;28;20042;-72
2023/03/20 05:04:18;;;;;;;17.50;10.55;;;;;;;-146.25;100.00;52339.81;2071322;28;20977;-70
2023/03/20 05:05:22;;;;;;;15.98;10.07;;;;;;;-146.25;100.00;52343.88;2063122;28;20050;-71
2023/03/20 05:06:29;;;;;;;17.65;9.88;;;;;;;-146.25;100.00;52347.91;2064848;28;20992;-71
2023/03/20 05:07:32;;;;;;;15.82;9.90;;;;;;;-146.25;100.00;52364.13;2071685;28;20057;-71
2023/03/20 05:08:37;;;;;;;17.70;9.75;;;;;;;-146.25;100.00;52345.91;2079098;28;20930;-71
2023/03/20 05:09:39;;;;;;;14.75;9.50;;;;;;;-146.25;100.00;52333.72;2079178;28;20046;-71
2023/03/20 05:10:42;;;;;;;15.02;9.32;;;;;;;-146.25;100.00;52337.78;2087101;28;20054;-71
2023/03/20 05:12:09;;;;;;;14.77;8.93;;;;;;;-146.25;100.00;52382.38;2070518;28;20124;-71
2023/03/20 05:13:16;;;;;;;13.45;7.78;;;;;;;-146.25;100.00;52335.75;2079395;28;20050;-71
2023/03/20 05:14:32;;;;;;;15.68;9.52;;;;;;;-146.25;100.00;52343.88;2073130;28;20519;-71
2023/03/20 05:15:53;;;;;;;11.20;6.50;;;;;;;-146.25;100.00;52331.69;2082438;28;20054;-71